Airfield :
LOGIN :

Register | Disclaimer

   EN    FR    IT 

 










Legend :    VFR   Marginal VFR   IFR   Intensive IFR   Very Intensive IFR
Visi :
Ceiling :
>= 8 km
>= 3000ft
5 to 8 km
1000 to 3000 ft
1500m to 5 km
500 to 1000 ft
800 to 1500m
200 to 500 ft
< 800m
< 200 ft
Symbols :   Thunderstorms  Fog  Heavy snow  Heavy precipitations  Wind > 20 kt
SIGMETs :     Misc.  Thunderstorms  Icing  Turbulence  Mountain Waves  Volcanic Ashes







- Airport Elevation : 302 ft
- IATA code : CGN


EDDK - Cologne Bonn

CURRENT METAR :
  • 221950Z 14005KT CAVOK 14/02 Q1027 NOSIG

EXPIRED METARs :
  • 221920Z 13004KT CAVOK 14/02 Q1027 NOSIG
  • 221850Z 13005KT CAVOK 15/02 Q1026 NOSIG
  • 221820Z 11005KT CAVOK 17/02 Q1026 NOSIG
  • 221750Z 12004KT CAVOK 17/03 Q1026 NOSIG
  • 221720Z 11003KT 080V140 CAVOK 18/03 Q1026 NOSIG

TAF TAF EDDK
Valid from the 22 at 18:00 until the 24 at 00:00 UTC


221700Z 2218/2324 13008KT CAVOK
BECMG 2218/2221 VRB03KT
BECMG 2305/2308 32006KT
PROB30
TEMPO 2305/2311 BKN012
No reported NOTAMs for that airfield.



MET'MAP, your aeronautical weather chart ! - Copyright ORBIFLY December 2007 - Disclaimer

ORBIFLY MET'MAP TEAM :

Programming & Development : Alexandra Zaïnal
Concept & Development : Baudouin d'Aumeries
Co-Development & Prog : Marc-Olivier Méhu
Technical & hardware support : Manuel Goepfert

Contact : metmap@orbifly.com




SOURCES & CREDITS :

   NOAA